Time;durP1;ratioP1;P1;durP2;ratioP2;P2;SDS_P1;SDS_P2;PMS_P1;PMS_P2;Temp;Humidity;BMP_temperature;BMP_pressure;BME280_temperature;BME280_humidity;BME280_pressure;Samples;Min_cycle;Max_cycle;Signal;HPM_P1;HPM_P2
2021/08/20 00:00:23;;;;;;;3.15;2.95;;;20.30;60.10;;;;;;5051928;28;20029;-83
2021/08/20 00:02:49;;;;;;;2.60;2.50;;;20.30;60.10;;;;;;5058557;28;20032;-83
2021/08/20 00:05:16;;;;;;;2.70;2.60;;;20.30;60.10;;;;;;5055086;28;20032;-82
2021/08/20 00:07:42;;;;;;;2.78;2.67;;;20.30;60.20;;;;;;5056693;28;20064;-84
2021/08/20 00:10:08;;;;;;;2.55;2.45;;;20.30;60.30;;;;;;5055321;28;20032;-83
2021/08/20 00:12:34;;;;;;;2.65;2.55;;;20.30;60.30;;;;;;5052508;28;20033;-81
2021/08/20 00:15:00;;;;;;;2.50;2.40;;;20.30;60.40;;;;;;5056003;28;20025;-84
2021/08/20 00:17:27;;;;;;;2.78;2.67;;;20.20;60.40;;;;;;5089086;28;20482;-83
2021/08/20 00:19:53;;;;;;;2.55;2.45;;;20.20;60.60;;;;;;5054782;28;20394;-84
2021/08/20 00:22:20;;;;;;;2.58;2.47;;;20.20;60.60;;;;;;5056466;28;20025;-83
2021/08/20 00:24:46;;;;;;;2.60;2.50;;;20.20;60.70;;;;;;5053983;28;20021;-84
2021/08/20 00:27:12;;;;;;;2.50;2.40;;;20.20;60.80;;;;;;5053025;28;20417;-84
2021/08/20 00:29:38;;;;;;;2.92;2.80;;;20.20;60.90;;;;;;5056893;28;20040;-83
2021/08/20 00:32:04;;;;;;;2.70;2.60;;;20.20;60.90;;;;;;5055884;28;20041;-84
2021/08/20 00:34:30;;;;;;;2.60;2.50;;;20.10;61.00;;;;;;5055663;28;20045;-83
2021/08/20 00:36:56;;;;;;;2.60;2.50;;;20.10;61.00;;;;;;5038439;28;20032;-83
2021/08/20 00:39:23;;;;;;;2.50;2.40;;;20.10;61.20;;;;;;5032206;28;20021;-85
2021/08/20 00:41:49;;;;;;;2.58;2.47;;;20.00;62.00;;;;;;5097630;28;20476;-84
2021/08/20 00:44:16;;;;;;;2.30;2.20;;;20.00;61.30;;;;;;5038493;28;20067;-84
2021/08/20 00:46:43;;;;;;;2.42;2.33;;;19.90;61.40;;;;;;5055164;28;20044;-84
2021/08/20 00:49:10;;;;;;;2.20;2.10;;;19.90;61.60;;;;;;5037766;28;20075;-83
2021/08/20 00:51:37;;;;;;;2.40;2.30;;;19.90;61.70;;;;;;5052018;28;20029;-83
2021/08/20 00:54:03;;;;;;;8.65;2.60;;;19.80;61.80;;;;;;5054603;28;20025;-82
2021/08/20 00:56:29;;;;;;;2.53;2.42;;;19.80;62.80;;;;;;5089464;28;20021;-84
2021/08/20 00:58:56;;;;;;;2.55;2.45;;;19.70;62.00;;;;;;5052882;28;20036;-84
2021/08/20 01:01:22;;;;;;;2.42;2.33;;;19.70;62.20;;;;;;5055029;28;20033;-83
2021/08/20 01:03:48;;;;;;;2.33;2.22;;;19.70;62.20;;;;;;5054270;28;20029;-83
2021/08/20 01:06:14;;;;;;;2.50;2.40;;;19.60;62.20;;;;;;5050816;28;20650;-84
2021/08/20 01:08:40;;;;;;;2.45;2.35;;;19.60;62.40;;;;;;5057343;28;20037;-82
2021/08/20 01:11:08;;;;;;;2.65;2.55;;;19.60;62.50;;;;;;5055599;28;20470;-83
2021/08/20 01:13:36;;;;;;;2.65;2.55;;;19.50;62.50;;;;;;5055545;28;20059;-84
2021/08/20 01:16:02;;;;;;;2.63;2.53;;;19.50;62.70;;;;;;5037452;28;20028;-83
2021/08/20 01:18:33;;;;;;;3.42;2.90;;;19.50;62.70;;;;;;5051390;28;20043;-83
2021/08/20 01:21:01;;;;;;;2.85;2.75;;;19.40;62.80;;;;;;5037846;28;20046;-84
2021/08/20 01:23:27;;;;;;;2.80;2.65;;;19.40;62.90;;;;;;5056256;28;20040;-83
2021/08/20 01:25:53;;;;;;;2.90;2.70;;;19.30;62.90;;;;;;5055483;28;20067;-84
2021/08/20 01:28:21;;;;;;;2.60;2.50;;;19.30;63.00;;;;;;5055026;28;20037;-84
2021/08/20 01:30:48;;;;;;;3.20;3.00;;;19.20;63.10;;;;;;5051891;28;20043;-84
2021/08/20 01:33:14;;;;;;;2.72;2.63;;;19.20;64.00;;;;;;5051689;28;20058;-83
2021/08/20 01:35:40;;;;;;;2.53;2.42;;;19.20;63.20;;;;;;5057111;28;20029;-83
2021/08/20 01:38:07;;;;;;;2.78;2.67;;;19.20;63.40;;;;;;5053931;28;20060;-83
2021/08/20 01:40:33;;;;;;;2.63;2.53;;;19.20;63.40;;;;;;5053747;28;20032;-82
2021/08/20 01:42:59;;;;;;;2.60;2.50;;;19.10;63.50;;;;;;5053811;28;20131;-83
2021/08/20 01:45:25;;;;;;;2.95;2.80;;;19.10;63.50;;;;;;5049854;28;20045;-84
2021/08/20 01:47:51;;;;;;;2.83;2.72;;;19.10;63.70;;;;;;5056457;28;20390;-84
2021/08/20 01:50:17;;;;;;;2.72;2.63;;;19.10;63.70;;;;;;5054742;28;20051;-83
2021/08/20 01:52:43;;;;;;;2.60;2.50;;;19.00;63.80;;;;;;5054749;28;20501;-85
2021/08/20 01:55:10;;;;;;;2.55;2.45;;;19.00;63.80;;;;;;5053627;28;20040;-84
2021/08/20 01:57:42;;;;;;;2.75;2.65;;;19.00;63.90;;;;;;5049308;28;20088;-84
2021/08/20 02:00:09;;;;;;;2.60;2.50;;;18.90;64.00;;;;;;5048565;28;20385;-83
2021/08/20 02:02:35;;;;;;;2.50;2.40;;;18.90;64.00;;;;;;5078134;28;20033;-85
2021/08/20 02:05:02;;;;;;;2.65;2.55;;;18.90;64.10;;;;;;5042576;28;20377;-83
2021/08/20 02:07:28;;;;;;;2.83;2.72;;;18.90;64.30;;;;;;5043471;28;20529;-83
2021/08/20 02:09:54;;;;;;;2.30;2.20;;;18.80;64.30;;;;;;5038120;28;20040;-82
2021/08/20 02:12:20;;;;;;;2.65;2.55;;;18.80;64.40;;;;;;5031054;28;20048;-81
2021/08/20 02:14:46;;;;;;;2.67;2.50;;;18.80;64.40;;;;;;5049467;28;20029;-83
2021/08/20 02:17:12;;;;;;;2.40;2.30;;;18.70;65.20;;;;;;5034382;28;20038;-82
2021/08/20 02:19:38;;;;;;;2.20;2.10;;;18.70;64.50;;;;;;5034911;28;20025;-83
2021/08/20 02:22:04;;;;;;;2.30;2.20;;;18.70;64.60;;;;;;5036739;28;20474;-85
2021/08/20 02:24:30;;;;;;;2.25;2.15;;;18.70;64.60;;;;;;5030472;28;20033;-84
2021/08/20 02:26:56;;;;;;;2.95;2.75;;;18.70;64.70;;;;;;5033383;28;20423;-85
2021/08/20 02:29:22;;;;;;;2.50;2.40;;;18.60;64.60;;;;;;5035438;28;20041;-83
2021/08/20 02:31:48;;;;;;;2.58;2.47;;;18.60;64.80;;;;;;5033272;28;20483;-83
2021/08/20 02:34:14;;;;;;;2.67;2.58;;;18.60;64.80;;;;;;5034731;28;20045;-84
2021/08/20 02:36:42;;;;;;;2.30;2.20;;;18.60;64.80;;;;;;5037853;28;20040;-84
2021/08/20 02:39:08;;;;;;;2.35;2.25;;;18.50;64.90;;;;;;5064574;28;20040;-83
2021/08/20 02:41:34;;;;;;;2.42;2.33;;;18.50;65.00;;;;;;5056276;28;20032;-83
2021/08/20 02:44:00;;;;;;;2.30;2.17;;;18.50;65.00;;;;;;5054051;28;20397;-84
2021/08/20 02:46:26;;;;;;;2.20;2.10;;;18.50;65.10;;;;;;5054041;28;20040;-84
2021/08/20 02:48:52;;;;;;;2.08;1.98;;;18.40;65.10;;;;;;5054051;28;20051;-85
2021/08/20 02:51:18;;;;;;;2.17;2.08;;;18.40;65.10;;;;;;5050214;28;20040;-83
2021/08/20 02:53:45;;;;;;;2.25;2.15;;;18.40;65.20;;;;;;5055329;28;20021;-83
2021/08/20 02:56:12;;;;;;;1.85;1.75;;;18.40;65.20;;;;;;5053011;28;20044;-83
2021/08/20 02:58:38;;;;;;;1.90;1.80;;;18.40;65.30;;;;;;5054201;28;20516;-83
2021/08/20 03:01:04;;;;;;;2.13;2.03;;;18.40;65.40;;;;;;5055168;28;20029;-83
2021/08/20 03:03:30;;;;;;;2.35;2.25;;;18.40;65.40;;;;;;5053247;28;20021;-81
2021/08/20 03:05:56;;;;;;;2.10;2.00;;;18.30;65.40;;;;;;5053637;28;20037;-81
2021/08/20 03:08:22;;;;;;;2.42;2.33;;;18.30;65.50;;;;;;5054905;28;20040;-83
2021/08/20 03:10:48;;;;;;;2.22;2.13;;;18.30;65.60;;;;;;5054792;28;20040;-83
2021/08/20 03:13:14;;;;;;;2.38;2.28;;;18.30;65.60;;;;;;5057287;28;20027;-82
2021/08/20 03:15:40;;;;;;;2.00;1.90;;;18.20;65.60;;;;;;5053646;28;20037;-83
2021/08/20 03:18:06;;;;;;;2.10;2.00;;;18.20;65.70;;;;;;5054484;28;20025;-83
2021/08/20 03:20:32;;;;;;;1.92;1.83;;;18.20;65.80;;;;;;5059256;28;20462;-84
2021/08/20 03:22:59;;;;;;;2.00;1.90;;;18.20;65.80;;;;;;5057575;28;20029;-83
2021/08/20 03:25:25;;;;;;;2.10;2.00;;;18.20;65.90;;;;;;5039794;28;20021;-82
2021/08/20 03:27:51;;;;;;;2.20;2.10;;;18.20;65.90;;;;;;5056394;28;20047;-83
2021/08/20 03:30:17;;;;;;;2.30;2.20;;;18.10;65.90;;;;;;5053011;28;20028;-83
2021/08/20 03:32:43;;;;;;;2.10;2.00;;;18.10;65.90;;;;;;5059497;28;20033;-83
2021/08/20 03:35:09;;;;;;;2.50;2.35;;;18.10;66.00;;;;;;5057278;28;20025;-83
2021/08/20 03:37:39;;;;;;;2.35;2.25;;;18.10;66.10;;;;;;5057337;28;20032;-83
2021/08/20 03:40:06;;;;;;;2.20;2.10;;;18.00;66.00;;;;;;5057137;28;20488;-84
2021/08/20 03:42:32;;;;;;;1.98;1.88;;;18.00;66.20;;;;;;5053736;28;20036;-83
2021/08/20 03:44:58;;;;;;;2.33;2.22;;;18.00;66.30;;;;;;5039267;28;20056;-84
2021/08/20 03:47:25;;;;;;;1.90;1.80;;;17.90;66.20;;;;;;5055955;28;20036;-84
2021/08/20 03:49:51;;;;;;;2.30;2.20;;;17.90;66.30;;;;;;5055969;28;20044;-83
2021/08/20 03:52:17;;;;;;;2.10;2.00;;;17.90;66.30;;;;;;5055460;28;20029;-84
2021/08/20 03:54:43;;;;;;;1.92;1.83;;;17.90;66.40;;;;;;5052601;28;20034;-83
2021/08/20 03:57:09;;;;;;;2.10;2.00;;;17.90;66.40;;;;;;5053838;28;20021;-84
2021/08/20 03:59:35;;;;;;;2.45;2.25;;;17.90;66.40;;;;;;5057597;28;20045;-84
2021/08/20 04:02:03;;;;;;;2.20;2.10;;;17.80;66.40;;;;;;5038348;28;20029;-84
2021/08/20 04:04:29;;;;;;;2.08;1.98;;;17.80;66.50;;;;;;5056771;28;20029;-83
2021/08/20 04:06:55;;;;;;;2.67;2.58;;;17.80;66.50;;;;;;5056793;28;20036;-83
2021/08/20 04:09:21;;;;;;;2.22;2.13;;;17.80;66.60;;;;;;5052245;28;20037;-84
2021/08/20 04:11:47;;;;;;;2.10;2.00;;;17.80;66.70;;;;;;5058660;28;20041;-84
2021/08/20 04:14:13;;;;;;;2.65;2.45;;;17.70;66.80;;;;;;5055347;28;20502;-83
2021/08/20 04:16:40;;;;;;;1.90;1.80;;;17.70;66.90;;;;;;5055882;28;20512;-82
2021/08/20 04:19:06;;;;;;;2.28;2.15;;;17.60;67.10;;;;;;5056447;28;20024;-84
2021/08/20 04:21:32;;;;;;;2.35;2.15;;;17.50;67.10;;;;;;5052691;28;20040;-84
2021/08/20 04:23:58;;;;;;;2.15;2.05;;;17.50;67.30;;;;;;5054842;28;20037;-84
2021/08/20 04:26:24;;;;;;;2.20;2.10;;;17.50;67.40;;;;;;5056833;28;20025;-83
2021/08/20 04:28:51;;;;;;;1.95;1.85;;;17.40;67.40;;;;;;5054928;28;20060;-82
2021/08/20 04:31:18;;;;;;;2.33;2.20;;;17.40;67.50;;;;;;5054418;28;20051;-83
2021/08/20 04:33:44;;;;;;;2.10;2.00;;;17.40;67.50;;;;;;5052946;28;20060;-81
2021/08/20 04:36:11;;;;;;;2.03;1.92;;;17.40;67.50;;;;;;5052165;28;20029;-84
2021/08/20 04:38:39;;;;;;;2.25;2.10;;;17.30;67.50;;;;;;5058071;28;20033;-83
2021/08/20 04:41:08;;;;;;;2.20;2.10;;;17.40;67.50;;;;;;5054599;28;20385;-84
2021/08/20 04:43:37;;;;;;;2.00;1.90;;;17.40;67.50;;;;;;5055932;28;20037;-82
2021/08/20 04:46:03;;;;;;;1.92;1.83;;;17.40;67.50;;;;;;5037805;28;20036;-83
2021/08/20 04:48:29;;;;;;;2.08;1.98;;;17.40;67.50;;;;;;5052206;28;20060;-85
2021/08/20 04:50:57;;;;;;;2.28;2.17;;;17.40;67.60;;;;;;5055363;28;20056;-83
2021/08/20 04:53:27;;;;;;;2.50;2.10;;;17.30;67.60;;;;;;5053905;28;20048;-83
2021/08/20 04:55:53;;;;;;;2.38;2.20;;;17.40;67.80;;;;;;5054426;28;20052;-83
2021/08/20 04:58:19;;;;;;;2.10;2.00;;;17.30;67.70;;;;;;5039347;28;20033;-83
2021/08/20 05:00:46;;;;;;;2.08;1.98;;;17.30;67.70;;;;;;5052549;28;20039;-84
2021/08/20 05:03:12;;;;;;;2.17;2.08;;;17.30;67.80;;;;;;5052429;28;20417;-84
2021/08/20 05:05:43;;;;;;;9.23;2.45;;;17.20;67.80;;;;;;5056150;28;20056;-84
2021/08/20 05:08:09;;;;;;;2.10;2.00;;;17.20;68.00;;;;;;5053929;28;20048;-83
2021/08/20 05:10:35;;;;;;;2.15;2.05;;;17.20;68.00;;;;;;5054289;28;20291;-83
2021/08/20 05:13:01;;;;;;;2.03;1.92;;;17.20;68.00;;;;;;5052860;28;20501;-84
2021/08/20 05:15:27;;;;;;;1.88;1.77;;;17.20;68.00;;;;;;5051212;28;20052;-83
2021/08/20 05:17:54;;;;;;;2.15;2.05;;;17.20;68.00;;;;;;5056938;28;20044;-83
2021/08/20 05:20:20;;;;;;;2.10;2.00;;;17.20;68.00;;;;;;5055533;28;20040;-83
2021/08/20 05:22:53;;;;;;;2.20;2.10;;;17.20;68.00;;;;;;5053741;28;20032;-83
2021/08/20 05:25:20;;;;;;;2.67;1.83;;;17.20;68.00;;;;;;5054122;28;20406;-83
2021/08/20 05:27:46;;;;;;;2.30;2.20;;;17.20;68.00;;;;;;5053788;28;20045;-83
2021/08/20 05:30:12;;;;;;;2.03;1.92;;;17.10;68.20;;;;;;5051489;28;20033;-86
2021/08/20 05:32:39;;;;;;;2.20;2.10;;;17.10;69.10;;;;;;5055709;28;20430;-83
2021/08/20 05:35:06;;;;;;;2.10;2.00;;;17.10;68.30;;;;;;5036952;28;20040;-84
2021/08/20 05:37:32;;;;;;;2.10;2.00;;;17.10;68.30;;;;;;5054624;28;20369;-83
2021/08/20 05:39:58;;;;;;;2.38;2.28;;;17.00;68.30;;;;;;5053936;28;20040;-83
2021/08/20 05:42:24;;;;;;;2.40;2.25;;;17.10;68.40;;;;;;5049154;28;20025;-84
2021/08/20 05:44:50;;;;;;;2.10;2.00;;;17.10;68.40;;;;;;5055612;28;20021;-83
2021/08/20 05:47:16;;;;;;;2.10;2.00;;;17.10;68.20;;;;;;5054503;28;20036;-83
2021/08/20 05:49:42;;;;;;;2.70;2.50;;;17.20;68.20;;;;;;5053381;28;20525;-83
2021/08/20 05:52:09;;;;;;;2.00;1.90;;;17.30;68.10;;;;;;5045063;28;20052;-84
2021/08/20 05:54:35;;;;;;;2.10;2.00;;;17.50;67.90;;;;;;5050166;28;20041;-82
2021/08/20 05:57:01;;;;;;;3.03;2.83;;;17.60;67.60;;;;;;5054351;28;20025;-84
2021/08/20 05:59:27;;;;;;;2.60;2.50;;;17.80;67.30;;;;;;5055898;28;20497;-83
2021/08/20 06:01:53;;;;;;;2.80;2.63;;;17.90;67.00;;;;;;5054251;28;20044;-83
2021/08/20 06:04:19;;;;;;;3.15;2.95;;;18.00;66.90;;;;;;5036952;28;20025;-84
2021/08/20 06:06:45;;;;;;;2.97;2.50;;;17.90;66.80;;;;;;5051800;28;20029;-83
2021/08/20 06:09:11;;;;;;;2.75;2.65;;;18.00;67.00;;;;;;5051655;28;20052;-84
2021/08/20 06:11:37;;;;;;;2.95;2.85;;;18.00;67.00;;;;;;5055511;28;20475;-84
2021/08/20 06:14:03;;;;;;;3.78;3.47;;;18.10;66.80;;;;;;5054714;28;20036;-83
2021/08/20 06:16:30;;;;;;;3.75;3.55;;;18.30;66.60;;;;;;5054030;28;20029;-85
2021/08/20 06:18:56;;;;;;;3.97;3.78;;;18.50;66.40;;;;;;5054465;28;20033;-83
2021/08/20 06:21:22;;;;;;;3.92;3.72;;;18.60;66.10;;;;;;5048625;28;20021;-84
2021/08/20 06:23:48;;;;;;;2.97;2.88;;;18.80;65.90;;;;;;5056893;28;20037;-84
2021/08/20 06:26:14;;;;;;;3.05;2.95;;;18.90;65.70;;;;;;5054593;28;20029;-84
2021/08/20 06:28:40;;;;;;;2.85;2.75;;;19.00;65.50;;;;;;5053043;28;20045;-84
2021/08/20 06:31:07;;;;;;;2.78;2.67;;;19.10;65.50;;;;;;5052558;28;20040;-84
2021/08/20 06:33:34;;;;;;;2.30;2.20;;;19.10;65.40;;;;;;5051063;28;20033;-83
2021/08/20 06:36:00;;;;;;;2.40;2.30;;;19.10;66.20;;;;;;5052891;28;20377;-84
2021/08/20 06:38:26;;;;;;;2.63;2.53;;;19.00;65.50;;;;;;5055373;28;20055;-84
2021/08/20 06:40:52;;;;;;;2.22;2.13;;;19.00;65.80;;;;;;5054302;28;20420;-83
2021/08/20 06:43:19;;;;;;;3.53;3.30;;;18.90;66.00;;;;;;5054318;28;20032;-84
2021/08/20 06:45:45;;;;;;;6.35;3.08;;;18.80;66.10;;;;;;5054974;28;20044;-84
2021/08/20 06:48:11;;;;;;;3.30;3.10;;;18.80;66.30;;;;;;5053889;28;20482;-84
2021/08/20 06:50:39;;;;;;;2.90;2.80;;;18.80;66.40;;;;;;5059688;28;20044;-84
2021/08/20 06:53:05;;;;;;;3.53;3.33;;;18.70;66.40;;;;;;5056884;28;20025;-83
2021/08/20 06:55:32;;;;;;;3.90;3.70;;;18.70;66.60;;;;;;5057946;28;20029;-83
2021/08/20 06:57:58;;;;;;;3.90;3.67;;;18.70;66.60;;;;;;5056954;28;20037;-83
2021/08/20 07:00:24;;;;;;;3.70;3.50;;;18.70;66.50;;;;;;5052295;28;20398;-84
2021/08/20 07:02:50;;;;;;;3.35;3.17;;;18.80;66.50;;;;;;5071150;28;20027;-84
2021/08/20 07:05:16;;;;;;;3.28;3.13;;;18.80;66.40;;;;;;5056602;28;20029;-83
2021/08/20 07:07:42;;;;;;;3.40;3.28;;;18.80;66.30;;;;;;5055374;28;20104;-84
2021/08/20 07:10:12;;;;;;;3.67;3.47;;;18.90;66.30;;;;;;5056221;28;20036;-84
2021/08/20 07:12:38;;;;;;;3.95;3.75;;;18.90;66.20;;;;;;5054263;28;20028;-83
2021/08/20 07:15:05;;;;;;;4.65;4.35;;;19.00;66.10;;;;;;5055939;28;20096;-84
2021/08/20 07:17:31;;;;;;;4.35;3.95;;;19.10;66.10;;;;;;5091285;28;20033;-84
2021/08/20 07:19:58;;;;;;;4.40;4.20;;;19.20;65.90;;;;;;5055946;28;20045;-83
2021/08/20 07:22:24;;;;;;;3.35;3.25;;;19.30;65.70;;;;;;5056285;28;20025;-84
2021/08/20 07:24:50;;;;;;;3.40;3.20;;;19.50;65.60;;;;;;5055642;28;20485;-84
2021/08/20 07:27:17;;;;;;;3.65;3.45;;;19.50;65.40;;;;;;5052794;28;20040;-85
2021/08/20 07:29:43;;;;;;;3.22;3.03;;;19.60;65.40;;;;;;5059474;28;20043;-84
2021/08/20 07:32:09;;;;;;;3.60;3.40;;;19.60;65.30;;;;;;5055588;28;20044;-84
2021/08/20 07:34:35;;;;;;;3.10;3.00;;;19.70;65.20;;;;;;5056789;28;20060;-84
2021/08/20 07:37:01;;;;;;;4.00;3.80;;;19.80;65.10;;;;;;5039678;28;20016;-84
2021/08/20 07:39:27;;;;;;;3.47;3.30;;;19.80;65.10;;;;;;5053245;28;20029;-84
2021/08/20 07:41:54;;;;;;;3.85;3.65;;;19.80;65.20;;;;;;5057981;28;20035;-84
2021/08/20 07:44:20;;;;;;;3.50;3.30;;;19.70;65.40;;;;;;5072783;28;20052;-83
2021/08/20 07:46:46;;;;;;;5.72;5.43;;;19.70;65.50;;;;;;5053800;28;20386;-84
2021/08/20 07:49:12;;;;;;;5.47;5.18;;;19.90;65.60;;;;;;5053955;28;20032;-85
2021/08/20 07:51:38;;;;;;;3.60;3.40;;;20.10;65.20;;;;;;5038260;28;20036;-84
2021/08/20 07:54:04;;;;;;;4.70;4.40;;;20.50;64.50;;;;;;5037943;28;20420;-84
2021/08/20 07:56:30;;;;;;;5.32;5.13;;;20.90;63.70;;;;;;5057696;28;20029;-84
2021/08/20 07:58:57;;;;;;;5.10;4.90;;;21.30;63.10;;;;;;5056959;28;20107;-84
2021/08/20 08:01:23;;;;;;;4.00;3.80;;;21.50;62.60;;;;;;5055080;28;20029;-84
2021/08/20 08:03:49;;;;;;;4.95;4.70;;;21.80;62.10;;;;;;5055558;28;20029;-84
2021/08/20 08:06:16;;;;;;;4.82;4.63;;;22.00;61.80;;;;;;5019444;28;20039;-85
2021/08/20 08:08:43;;;;;;;4.78;4.57;;;22.10;61.70;;;;;;5058672;28;20041;-84
2021/08/20 08:11:09;;;;;;;4.90;4.70;;;22.10;61.70;;;;;;5055597;28;20539;-84
2021/08/20 08:13:36;;;;;;;5.10;4.90;;;22.00;61.90;;;;;;5055527;28;20033;-86
2021/08/20 08:16:02;;;;;;;5.55;5.25;;;22.10;61.90;;;;;;5055016;28;20035;-85
2021/08/20 08:18:28;;;;;;;5.47;5.18;;;22.20;61.70;;;;;;5051020;28;20025;-84
2021/08/20 08:20:55;;;;;;;5.00;4.80;;;22.30;61.70;;;;;;5057544;28;20497;-86
2021/08/20 08:23:21;;;;;;;5.93;5.60;;;22.40;61.40;;;;;;5039252;28;20054;-84
2021/08/20 08:25:47;;;;;;;5.70;5.40;;;22.70;61.10;;;;;;5037462;28;20025;-85
2021/08/20 08:28:13;;;;;;;6.22;5.93;;;22.90;60.60;;;;;;5054924;28;20385;-85
2021/08/20 08:30:40;;;;;;;6.10;5.80;;;23.10;60.20;;;;;;5052199;28;20041;-84
2021/08/20 08:33:07;;;;;;;5.82;5.53;;;23.20;59.90;;;;;;5053045;28;20061;-84
2021/08/20 08:35:34;;;;;;;6.03;5.72;;;23.30;60.00;;;;;;5071252;28;20027;-85
2021/08/20 08:38:11;;;;;;;5.75;5.40;;;23.40;59.90;;;;;;5054901;28;20040;-85
2021/08/20 08:40:39;;;;;;;5.90;5.60;;;23.40;59.60;;;;;;5054624;28;20044;-82
2021/08/20 08:43:08;;;;;;;5.35;5.15;;;23.40;59.60;;;;;;5055993;28;20028;-85
2021/08/20 08:45:34;;;;;;;5.20;4.95;;;23.30;59.70;;;;;;5051270;28;20390;-85
2021/08/20 08:48:02;;;;;;;11.00;5.45;;;23.40;59.70;;;;;;5037968;28;20037;-85
2021/08/20 08:50:28;;;;;;;5.07;4.78;;;23.50;59.50;;;;;;5055593;28;20072;-85
2021/08/20 08:52:54;;;;;;;5.88;5.55;;;23.70;59.20;;;;;;5055987;28;20386;-84
2021/08/20 08:55:20;;;;;;;5.10;4.90;;;23.80;59.00;;;;;;5054594;28;20033;-85
2021/08/20 08:57:46;;;;;;;5.38;5.18;;;23.90;58.70;;;;;;5038370;28;20028;-85
2021/08/20 09:00:13;;;;;;;6.80;6.25;;;24.10;58.60;;;;;;5050547;28;20029;-85
2021/08/20 09:02:39;;;;;;;6.85;6.45;;;24.20;58.30;;;;;;5056448;28;20040;-85
2021/08/20 09:05:10;;;;;;;6.57;6.28;;;24.40;58.10;;;;;;5054243;28;20025;-84
2021/08/20 09:07:37;;;;;;;7.05;6.75;;;24.60;57.90;;;;;;5052500;28;20041;-85
2021/08/20 09:10:09;;;;;;;7.57;7.22;;;24.70;57.60;;;;;;5054387;28;20047;-84
2021/08/20 09:12:36;;;;;;;8.05;7.65;;;24.80;57.30;;;;;;5053046;28;20033;-84
2021/08/20 09:15:02;;;;;;;7.65;7.30;;;24.80;57.20;;;;;;5053408;28;20040;-85
2021/08/20 09:17:35;;;;;;;8.70;8.30;;;24.90;57.20;;;;;;5087778;28;20033;-85
2021/08/20 09:20:24;;;;;;;8.45;8.02;;;25.00;57.00;;;;;;5039336;28;20037;-85
2021/08/20 09:22:51;;;;;;;7.50;7.10;;;25.10;56.80;;;;;;5055237;28;20032;-86
2021/08/20 09:25:39;;;;;;;7.60;7.25;;;25.20;56.90;;;;;;5054151;28;20044;-85
2021/08/20 09:28:09;;;;;;;7.95;7.55;;;25.30;56.60;;;;;;5054165;28;20020;-85
2021/08/20 09:30:35;;;;;;;6.95;6.63;;;25.40;56.30;;;;;;5051509;28;20048;-85
2021/08/20 09:33:02;;;;;;;6.95;6.65;;;25.60;56.20;;;;;;5053074;28;20052;-85
2021/08/20 09:35:37;;;;;;;6.88;6.57;;;25.70;55.90;;;;;;5056460;28;20505;-85
2021/08/20 09:38:11;;;;;;;7.72;7.32;;;25.70;55.70;;;;;;5037385;28;20486;-85
2021/08/20 09:40:40;;;;;;;6.32;6.03;;;25.90;55.60;;;;;;5053875;28;20075;-85
2021/08/20 09:43:17;;;;;;;8.50;8.10;;;26.00;55.50;;;;;;5052409;28;20047;-85
2021/08/20 09:46:02;;;;;;;7.70;7.35;;;26.10;55.20;;;;;;5050933;28;20048;-86
2021/08/20 09:48:47;;;;;;;8.50;8.10;;;26.10;54.80;;;;;;5019031;28;20398;-85
2021/08/20 09:51:42;;;;;;;8.20;7.80;;;26.10;54.90;;;;;;5051821;28;20504;-87
2021/08/20 09:54:19;;;;;;;8.25;7.85;;;26.10;55.40;;;;;;5055748;28;20029;-85
2021/08/20 09:56:45;;;;;;;7.40;7.07;;;26.00;54.70;;;;;;5039593;28;20036;-85
2021/08/20 09:59:12;;;;;;;10.27;9.75;;;26.10;54.90;;;;;;5054540;28;20498;-84
2021/08/20 10:01:39;;;;;;;10.60;10.10;;;26.30;54.70;;;;;;5054402;28;20033;-85
2021/08/20 10:04:07;;;;;;;10.85;10.35;;;26.70;54.20;;;;;;5050520;28;20024;-86
2021/08/20 10:06:41;;;;;;;9.57;9.07;;;26.90;53.70;;;;;;5066240;28;20508;-86
2021/08/20 10:09:08;;;;;;;9.68;9.27;;;26.90;53.10;;;;;;5052862;28;20052;-85
2021/08/20 10:11:38;;;;;;;10.75;10.25;;;26.80;53.10;;;;;;5056658;28;20021;-85
2021/08/20 10:14:05;;;;;;;9.95;9.50;;;26.70;53.30;;;;;;5037127;28;20033;-85
2021/08/20 10:16:33;;;;;;;9.95;9.48;;;26.70;53.30;;;;;;5036594;28;20029;-85
2021/08/20 10:19:00;;;;;;;9.57;9.07;;;27.00;53.00;;;;;;5053569;28;20032;-85
2021/08/20 10:21:27;;;;;;;8.43;8.02;;;27.40;52.50;;;;;;5051426;28;20485;-85
2021/08/20 10:23:54;;;;;;;8.48;8.07;;;27.50;52.00;;;;;;5060181;28;20052;-85
2021/08/20 10:26:20;;;;;;;7.00;6.70;;;27.50;51.80;;;;;;5057493;28;20032;-85
2021/08/20 10:28:46;;;;;;;7.80;7.35;;;27.40;52.00;;;;;;5057188;28;20037;-86
2021/08/20 10:31:13;;;;;;;8.15;7.75;;;27.40;51.80;;;;;;5040266;28;20037;-85
2021/08/20 10:33:40;;;;;;;7.85;7.47;;;27.30;51.70;;;;;;5038409;28;20040;-85
2021/08/20 10:36:06;;;;;;;7.60;7.30;;;27.20;51.70;;;;;;5055830;28;20394;-85
2021/08/20 10:38:39;;;;;;;7.38;7.07;;;27.10;51.90;;;;;;5059928;28;20029;-86
2021/08/20 10:41:14;;;;;;;7.60;7.20;;;27.10;51.70;;;;;;5057196;28;20470;-86
2021/08/20 10:43:56;;;;;;;8.50;8.00;;;27.00;51.20;;;;;;5058018;28;20037;-85
2021/08/20 10:46:34;;;;;;;8.18;7.78;;;26.90;51.30;;;;;;5057840;28;20040;-85
2021/08/20 10:51:51;;;;;;;8.02;7.63;;;27.20;51.00;;;;;;5054646;28;20048;-85
2021/08/20 10:54:36;;;;;;;7.25;6.95;;;27.20;50.90;;;;;;5054433;28;20032;-85
2021/08/20 10:57:06;;;;;;;7.63;7.22;;;27.20;50.70;;;;;;5067982;28;20028;-85
2021/08/20 10:59:36;;;;;;;7.73;7.40;;;27.10;50.70;;;;;;5055049;28;20052;-85
2021/08/20 11:02:23;;;;;;;7.57;7.28;;;27.10;50.50;;;;;;5054090;28;20486;-85
2021/08/20 11:05:05;;;;;;;7.93;7.53;;;27.10;50.40;;;;;;5056392;28;20032;-87
2021/08/20 11:07:34;;;;;;;8.27;7.88;;;27.10;50.30;;;;;;5056625;28;20397;-87
2021/08/20 11:10:21;;;;;;;9.85;9.40;;;27.00;50.00;;;;;;5057772;28;20036;-85
2021/08/20 11:12:48;;;;;;;9.27;8.60;;;27.00;50.00;;;;;;5047987;28;20032;-85
2021/08/20 11:15:41;;;;;;;7.70;7.32;;;27.10;50.00;;;;;;5070442;28;24845;-87
2021/08/20 11:18:07;;;;;;;8.85;8.38;;;27.20;49.80;;;;;;5066651;28;20032;-85
2021/08/20 11:20:40;;;;;;;8.10;7.70;;;27.30;49.40;;;;;;5059371;28;20368;-85
2021/08/20 11:23:12;;;;;;;7.88;7.50;;;27.40;49.40;;;;;;5057668;28;20040;-86
2021/08/20 11:25:52;;;;;;;6.95;6.65;;;27.40;49.30;;;;;;5057286;28;20028;-85
2021/08/20 11:28:40;;;;;;;6.68;6.38;;;27.50;49.10;;;;;;5040830;28;20029;-85
2021/08/20 11:31:13;;;;;;;6.82;6.53;;;27.50;49.00;;;;;;5055941;28;20508;-85
2021/08/20 11:33:40;;;;;;;6.57;6.28;;;27.50;49.00;;;;;;5036960;28;20055;-85
2021/08/20 11:36:16;;;;;;;6.50;6.20;;;27.40;48.90;;;;;;5055885;28;20041;-85
2021/08/20 11:38:43;;;;;;;5.97;5.68;;;27.40;49.00;;;;;;5058136;28;20037;-85
2021/08/20 11:41:21;;;;;;;6.57;6.07;;;27.40;48.90;;;;;;5055678;28;20029;-85
2021/08/20 11:43:54;;;;;;;6.78;6.47;;;27.40;48.80;;;;;;5054629;28;20029;-85
2021/08/20 11:46:22;;;;;;;6.55;6.25;;;27.60;48.70;;;;;;5055525;28;20083;-84
2021/08/20 11:48:50;;;;;;;7.20;6.90;;;27.70;48.40;;;;;;5038248;28;20031;-87
2021/08/20 11:51:32;;;;;;;6.97;6.65;;;28.00;48.30;;;;;;5053701;28;20044;-84
2021/08/20 11:54:00;;;;;;;7.10;6.80;;;28.10;47.80;;;;;;5098108;28;20020;-85
2021/08/20 11:56:26;;;;;;;5.88;5.57;;;28.20;47.70;;;;;;5057418;28;20025;-84
2021/08/20 11:58:53;;;;;;;5.95;5.65;;;28.20;47.70;;;;;;5056927;28;20028;-85
2021/08/20 12:01:31;;;;;;;5.85;5.55;;;28.30;47.60;;;;;;5055241;28;20040;-86
2021/08/20 12:03:58;;;;;;;6.85;6.55;;;28.20;47.40;;;;;;5056908;28;20031;-84
2021/08/20 12:06:25;;;;;;;6.63;6.32;;;28.10;47.60;;;;;;5034884;28;20026;-84
2021/08/20 12:08:57;;;;;;;6.47;6.18;;;28.20;47.60;;;;;;5065628;28;20036;-84
2021/08/20 12:11:25;;;;;;;6.05;5.75;;;28.20;47.60;;;;;;5039276;28;20041;-85
2021/08/20 12:13:52;;;;;;;7.25;6.93;;;28.40;47.40;;;;;;5056758;28;20036;-85
2021/08/20 12:16:41;;;;;;;7.45;7.13;;;28.50;47.20;;;;;;5054926;28;20407;-85
2021/08/20 12:19:23;;;;;;;7.50;7.10;;;28.50;47.00;;;;;;5053936;28;20021;-84
2021/08/20 12:22:06;;;;;;;7.28;6.97;;;28.50;47.00;;;;;;5054451;28;20044;-85
2021/08/20 12:24:45;;;;;;;8.55;8.15;;;28.50;47.10;;;;;;5035769;28;20017;-85
2021/08/20 12:27:27;;;;;;;7.85;7.45;;;28.60;47.00;;;;;;5036642;28;20496;-84
2021/08/20 12:30:00;;;;;;;7.35;7.05;;;28.70;46.90;;;;;;5064929;28;20039;-85
2021/08/20 12:32:27;;;;;;;7.45;7.05;;;28.70;46.80;;;;;;5057174;28;20051;-85
2021/08/20 12:34:57;;;;;;;7.97;7.57;;;28.70;46.90;;;;;;5054740;28;20498;-84
2021/08/20 12:37:24;;;;;;;8.20;7.80;;;28.70;46.80;;;;;;5056444;28;20055;-85
2021/08/20 12:39:58;;;;;;;9.18;8.77;;;28.70;46.70;;;;;;5055360;28;20049;-85
2021/08/20 12:42:26;;;;;;;7.28;6.93;;;28.60;46.70;;;;;;5019186;28;20025;-84
2021/08/20 12:45:08;;;;;;;7.15;6.75;;;28.50;46.80;;;;;;5064648;28;20401;-85
2021/08/20 12:47:34;;;;;;;7.50;7.20;;;28.40;46.90;;;;;;5055155;28;20520;-85
2021/08/20 12:50:08;;;;;;;7.28;6.97;;;28.50;46.80;;;;;;5055837;28;20033;-85
2021/08/20 12:52:34;;;;;;;6.10;5.80;;;28.50;46.60;;;;;;5054486;28;20398;-85